Time;durP1;ratioP1;P1;durP2;ratioP2;P2;SDS_P1;SDS_P2;PMS_P1;PMS_P2;Temp;Humidity;BMP_temperature;BMP_pressure;BME280_temperature;BME280_humidity;BME280_pressure;Samples;Min_cycle;Max_cycle;Signal;HPM_P1;HPM_P2
2021/04/26 00:00:18;;;;;;;2.60;0.70;;;7.90;63.40;;;;;;5051102;28;20216;-68
2021/04/26 00:02:44;;;;;;;2.70;0.63;;;7.90;63.60;;;;;;5051264;28;20170;-68
2021/04/26 00:05:13;;;;;;;2.50;0.67;;;7.80;63.90;;;;;;5018297;28;20707;-68
2021/04/26 00:07:39;;;;;;;2.40;0.50;;;7.80;64.70;;;;;;5016346;28;20429;-67
2021/04/26 00:10:05;;;;;;;3.60;1.70;;;7.70;65.10;;;;;;5033136;28;20274;-66
2021/04/26 00:12:33;;;;;;;2.90;1.13;;;7.70;65.30;;;;;;5035493;28;20174;-68
2021/04/26 00:14:59;;;;;;;2.58;0.63;;;7.70;65.80;;;;;;5034001;28;20202;-68
2021/04/26 00:17:25;;;;;;;2.83;0.83;;;7.70;65.80;;;;;;5032161;28;20237;-68
2021/04/26 00:19:50;;;;;;;4.87;1.10;;;7.70;66.10;;;;;;5035129;28;20428;-68
2021/04/26 00:22:16;;;;;;;2.90;0.90;;;7.70;66.30;;;;;;5035225;28;20160;-66
2021/04/26 00:24:44;;;;;;;3.10;1.37;;;7.70;66.70;;;;;;5035232;28;20560;-68
2021/04/26 00:27:09;;;;;;;3.72;1.30;;;7.70;67.10;;;;;;5034498;28;20178;-69
2021/04/26 00:29:35;;;;;;;4.93;1.00;;;7.70;67.40;;;;;;5035252;28;20197;-68
2021/04/26 00:32:01;;;;;;;3.00;1.00;;;7.70;67.60;;;;;;5035413;28;20170;-69
2021/04/26 00:34:26;;;;;;;2.60;0.67;;;7.70;67.70;;;;;;5035108;28;20648;-68
2021/04/26 00:36:52;;;;;;;2.80;0.60;;;7.60;68.00;;;;;;5034772;28;20181;-68
2021/04/26 00:39:18;;;;;;;2.60;0.57;;;7.60;68.10;;;;;;5034886;28;20182;-68
2021/04/26 00:41:43;;;;;;;3.00;1.00;;;7.50;68.80;;;;;;5020368;28;20181;-68
2021/04/26 00:44:09;;;;;;;3.50;0.97;;;7.50;68.70;;;;;;5014809;28;20183;-69
2021/04/26 00:46:35;;;;;;;2.60;0.80;;;7.40;69.10;;;;;;5014865;28;20209;-68
2021/04/26 00:49:00;;;;;;;2.80;1.00;;;7.40;69.10;;;;;;5015071;28;20431;-68
2021/04/26 00:51:26;;;;;;;3.23;1.33;;;7.30;69.80;;;;;;5014894;28;20191;-68
2021/04/26 00:53:53;;;;;;;3.20;0.70;;;7.30;70.60;;;;;;5015031;28;20199;-68
2021/04/26 00:56:19;;;;;;;2.60;0.60;;;7.20;70.70;;;;;;5014457;28;20501;-66
2021/04/26 00:58:44;;;;;;;2.60;0.80;;;7.20;71.20;;;;;;5014884;28;20281;-66
2021/04/26 01:01:13;;;;;;;2.80;0.80;;;7.20;71.60;;;;;;5014980;28;20163;-68
2021/04/26 01:03:39;;;;;;;2.85;1.10;;;7.20;72.00;;;;;;5014879;28;20225;-69
2021/04/26 01:06:04;;;;;;;2.97;0.80;;;7.20;72.10;;;;;;5014216;28;20178;-66
2021/04/26 01:08:30;;;;;;;3.17;0.97;;;7.20;72.40;;;;;;5014909;28;20519;-66
2021/04/26 01:10:57;;;;;;;3.07;1.10;;;7.10;72.60;;;;;;5026393;28;20174;-67
2021/04/26 01:13:43;;;;;;;2.60;0.55;;;7.10;73.20;;;;;;5034399;28;20174;-67
2021/04/26 01:16:33;;;;;;;2.53;0.47;;;7.10;73.90;;;;;;5034085;28;20629;-66
2021/04/26 01:19:25;;;;;;;2.80;0.82;;;7.00;74.10;;;;;;5032408;28;20194;-66
2021/04/26 01:22:04;;;;;;;3.08;0.90;;;7.00;74.40;;;;;;5034254;28;20664;-68
2021/04/26 01:24:40;;;;;;;2.70;0.80;;;6.90;74.50;;;;;;5034264;28;20184;-66
2021/04/26 01:27:26;;;;;;;3.70;1.60;;;6.90;74.50;;;;;;5032447;28;20178;-66
2021/04/26 01:30:06;;;;;;;3.13;1.05;;;6.90;75.00;;;;;;5033936;28;20271;-66
2021/04/26 01:32:55;;;;;;;3.00;0.95;;;6.80;75.10;;;;;;5034027;28;20257;-68
2021/04/26 01:35:22;;;;;;;4.00;1.02;;;6.70;74.90;;;;;;5014107;28;20234;-66
2021/04/26 01:37:52;;;;;;;2.80;0.82;;;6.60;75.30;;;;;;5013579;28;20228;-69
2021/04/26 01:40:19;;;;;;;3.72;1.40;;;6.60;75.80;;;;;;5014290;28;20174;-69
2021/04/26 01:42:49;;;;;;;3.60;1.30;;;6.50;76.50;;;;;;5014186;28;20170;-66
2021/04/26 01:45:16;;;;;;;2.95;0.95;;;6.40;77.50;;;;;;5014051;28;20257;-66
2021/04/26 01:47:44;;;;;;;3.10;1.30;;;6.40;78.40;;;;;;5013539;28;20171;-67
2021/04/26 01:50:11;;;;;;;4.07;1.63;;;6.30;79.70;;;;;;5013813;28;20182;-66
2021/04/26 01:52:38;;;;;;;3.45;1.63;;;6.30;80.50;;;;;;5013846;28;20233;-67
2021/04/26 01:55:09;;;;;;;4.00;1.50;;;6.30;80.90;;;;;;5013298;28;20570;-66
2021/04/26 01:57:37;;;;;;;4.05;1.25;;;6.30;81.10;;;;;;5013400;28;20532;-66
2021/04/26 02:00:13;;;;;;;3.63;1.25;;;6.30;81.00;;;;;;5013923;28;20162;-68
2021/04/26 02:02:40;;;;;;;3.38;1.13;;;6.30;80.90;;;;;;5017385;28;20173;-66
2021/04/26 02:05:07;;;;;;;2.95;0.93;;;6.40;81.40;;;;;;5033285;28;20208;-67
2021/04/26 02:07:34;;;;;;;4.65;1.13;;;6.40;81.60;;;;;;5031512;28;20363;-67
2021/04/26 02:10:00;;;;;;;3.00;0.90;;;6.40;82.20;;;;;;5033423;28;20166;-66
2021/04/26 02:12:26;;;;;;;2.80;0.77;;;6.30;82.50;;;;;;5033482;28;20169;-66
2021/04/26 02:14:51;;;;;;;3.83;1.47;;;6.30;82.90;;;;;;5033782;28;20193;-66
2021/04/26 02:17:17;;;;;;;3.17;1.07;;;6.30;83.10;;;;;;5029864;28;20977;-69
2021/04/26 02:19:43;;;;;;;3.83;1.30;;;6.20;83.30;;;;;;5013605;28;20260;-66
2021/04/26 02:22:11;;;;;;;3.88;1.38;;;6.20;83.70;;;;;;5013839;28;20167;-66
2021/04/26 02:24:36;;;;;;;3.22;1.00;;;6.10;84.00;;;;;;5013845;28;20177;-66
2021/04/26 02:27:02;;;;;;;3.77;2.50;;;6.10;84.10;;;;;;5013188;28;20245;-66
2021/04/26 02:29:28;;;;;;;5.90;2.10;;;6.10;84.70;;;;;;5032283;28;20616;-66
2021/04/26 02:32:00;;;;;;;3.33;1.17;;;6.10;85.00;;;;;;5033642;28;20941;-67
2021/04/26 02:34:32;;;;;;;4.07;1.63;;;6.10;85.00;;;;;;5033479;28;20194;-66
2021/04/26 02:37:06;;;;;;;2.90;1.00;;;6.10;84.90;;;;;;5032908;28;20170;-66
2021/04/26 02:39:34;;;;;;;3.22;1.00;;;6.10;85.10;;;;;;5033075;28;20185;-67
2021/04/26 02:42:03;;;;;;;3.30;0.93;;;6.10;85.10;;;;;;5031927;28;20228;-66
2021/04/26 02:44:30;;;;;;;3.00;0.77;;;6.10;85.00;;;;;;5012219;28;20190;-66
2021/04/26 02:47:09;;;;;;;3.38;0.70;;;6.10;85.00;;;;;;5013244;28;20225;-66
2021/04/26 02:49:38;;;;;;;3.22;0.85;;;6.10;84.90;;;;;;5012106;28;20198;-67
2021/04/26 02:52:05;;;;;;;3.70;1.40;;;6.10;84.80;;;;;;5013441;28;20563;-67
2021/04/26 02:54:32;;;;;;;3.42;1.45;;;6.10;85.00;;;;;;5013477;28;20202;-66
2021/04/26 02:56:58;;;;;;;3.10;0.88;;;6.10;84.90;;;;;;5015554;28;20171;-66
2021/04/26 02:59:24;;;;;;;5.25;2.20;;;6.10;85.30;;;;;;5048867;28;20548;-69
2021/04/26 03:01:52;;;;;;;5.38;1.75;;;6.00;85.10;;;;;;5033188;28;20228;-66
2021/04/26 03:04:20;;;;;;;3.08;1.13;;;6.00;85.00;;;;;;5033161;28;20215;-66
2021/04/26 03:06:48;;;;;;;4.30;1.42;;;6.00;85.20;;;;;;5033599;28;20261;-66
2021/04/26 03:09:15;;;;;;;2.92;0.77;;;6.00;85.00;;;;;;5036760;28;20201;-67
2021/04/26 03:11:41;;;;;;;3.00;1.10;;;5.90;85.30;;;;;;5037024;28;20201;-67
2021/04/26 03:14:08;;;;;;;9.32;1.80;;;5.90;86.70;;;;;;5036735;28;20190;-67
2021/04/26 03:16:34;;;;;;;2.80;0.75;;;5.80;86.00;;;;;;5036332;28;20206;-67
2021/04/26 03:19:00;;;;;;;4.00;1.30;;;5.80;85.90;;;;;;5036390;28;20248;-67
2021/04/26 03:21:27;;;;;;;3.22;1.23;;;5.70;86.30;;;;;;5022806;28;20185;-67
2021/04/26 03:23:55;;;;;;;3.60;1.30;;;5.70;88.00;;;;;;5016898;28;20178;-67
2021/04/26 03:26:21;;;;;;;3.70;1.27;;;5.60;88.60;;;;;;5016439;28;20174;-67
2021/04/26 03:28:47;;;;;;;5.45;1.23;;;5.50;89.40;;;;;;5016679;28;20610;-67
2021/04/26 03:31:13;;;;;;;4.70;1.90;;;5.50;89.60;;;;;;5016712;28;20183;-67
2021/04/26 03:33:40;;;;;;;3.47;1.10;;;5.40;90.30;;;;;;5016617;28;20177;-67
2021/04/26 03:36:07;;;;;;;3.00;1.30;;;5.40;90.30;;;;;;5028578;28;20228;-67
2021/04/26 03:38:33;;;;;;;3.50;1.48;;;5.30;90.60;;;;;;5035862;28;20186;-67
2021/04/26 03:40:59;;;;;;;3.00;1.20;;;5.30;90.70;;;;;;5036239;28;20525;-67
2021/04/26 03:43:25;;;;;;;2.80;0.60;;;5.30;90.50;;;;;;5036216;28;20532;-66
2021/04/26 03:45:55;;;;;;;2.92;1.05;;;5.30;90.20;;;;;;5035852;28;20170;-67
2021/04/26 03:48:20;;;;;;;3.10;1.08;;;5.30;90.00;;;;;;5035645;28;20205;-67
2021/04/26 03:50:46;;;;;;;4.13;1.50;;;5.30;90.00;;;;;;5035846;28;20194;-67
2021/04/26 03:53:12;;;;;;;3.27;1.40;;;5.30;90.10;;;;;;5036167;28;20189;-67
2021/04/26 03:55:37;;;;;;;4.67;1.50;;;5.20;90.00;;;;;;5035203;28;20198;-67
2021/04/26 03:58:06;;;;;;;3.97;1.30;;;5.20;89.80;;;;;;5035767;28;20197;-67
2021/04/26 04:00:32;;;;;;;4.72;1.30;;;5.10;90.00;;;;;;5035952;28;20165;-67
2021/04/26 04:02:57;;;;;;;2.80;0.50;;;5.10;90.10;;;;;;5035842;28;20166;-66
2021/04/26 04:05:23;;;;;;;3.40;1.03;;;5.00;90.00;;;;;;5035849;28;20224;-68
2021/04/26 04:07:49;;;;;;;2.90;1.00;;;5.10;90.20;;;;;;5035096;28;20861;-67
2021/04/26 04:10:16;;;;;;;4.60;0.80;;;5.00;90.20;;;;;;5025638;28;20511;-67
2021/04/26 04:12:42;;;;;;;3.83;0.90;;;4.90;90.00;;;;;;5015898;28;20181;-67
2021/04/26 04:15:09;;;;;;;3.77;1.67;;;4.90;90.30;;;;;;5015707;28;20498;-66
2021/04/26 04:17:37;;;;;;;2.95;0.90;;;4.90;90.70;;;;;;5016299;28;20862;-67
2021/04/26 04:20:04;;;;;;;4.60;1.70;;;4.90;90.80;;;;;;5034794;28;20182;-67
2021/04/26 04:22:30;;;;;;;3.60;1.35;;;4.80;90.80;;;;;;5035368;28;20178;-67
2021/04/26 04:24:55;;;;;;;3.17;1.17;;;4.90;91.00;;;;;;5035510;28;20633;-67
2021/04/26 04:27:21;;;;;;;3.20;1.03;;;4.90;91.10;;;;;;5035006;28;20636;-67
2021/04/26 04:29:47;;;;;;;3.70;1.40;;;4.90;91.30;;;;;;5035276;28;20194;-67
2021/04/26 04:32:12;;;;;;;3.20;1.07;;;5.00;91.90;;;;;;5035027;28;20637;-67
2021/04/26 04:34:38;;;;;;;5.00;1.03;;;5.10;92.20;;;;;;5018913;28;20201;-67
2021/04/26 04:37:05;;;;;;;4.03;1.17;;;5.20;92.40;;;;;;5034713;28;20170;-67
2021/04/26 04:39:30;;;;;;;3.58;1.20;;;5.30;92.10;;;;;;5035172;28;20189;-67
2021/04/26 04:41:56;;;;;;;3.93;1.20;;;5.30;92.00;;;;;;5050292;28;20217;-67
2021/04/26 04:44:22;;;;;;;3.10;1.00;;;5.40;91.70;;;;;;5035010;28;20181;-67
2021/04/26 04:46:47;;;;;;;3.83;1.20;;;5.50;91.80;;;;;;5034627;28;20213;-67
2021/04/26 04:49:13;;;;;;;3.40;1.43;;;5.80;91.90;;;;;;5034455;28;20931;-68
2021/04/26 04:51:39;;;;;;;3.10;0.77;;;6.00;90.30;;;;;;5034806;28;20192;-67
2021/04/26 04:54:05;;;;;;;3.33;1.00;;;6.20;90.20;;;;;;5034726;28;20218;-67
2021/04/26 04:56:31;;;;;;;3.40;1.00;;;6.50;87.30;;;;;;5034417;28;20891;-67
2021/04/26 04:58:56;;;;;;;3.20;1.13;;;6.70;85.90;;;;;;5034507;28;20430;-67
2021/04/26 05:01:22;;;;;;;3.47;1.53;;;7.00;85.20;;;;;;5034801;28;20209;-67
2021/04/26 05:03:48;;;;;;;3.53;1.47;;;7.40;83.20;;;;;;5017077;28;20182;-65
2021/04/26 05:06:13;;;;;;;3.57;1.40;;;7.90;80.90;;;;;;5014350;28;20193;-66
2021/04/26 05:08:39;;;;;;;3.27;1.30;;;8.20;79.40;;;;;;5013238;28;20194;-67
2021/04/26 05:11:05;;;;;;;4.60;1.90;;;8.30;77.70;;;;;;5014717;28;20163;-66
2021/04/26 05:13:31;;;;;;;6.60;1.20;;;8.40;76.70;;;;;;5014713;28;20245;-68
2021/04/26 05:15:57;;;;;;;5.70;2.78;;;8.30;76.10;;;;;;5014737;28;20198;-66
2021/04/26 05:18:23;;;;;;;5.43;2.23;;;8.20;76.50;;;;;;5029944;28;20295;-67
2021/04/26 05:20:49;;;;;;;4.10;1.20;;;8.30;75.60;;;;;;5034303;28;20656;-68
2021/04/26 05:23:14;;;;;;;3.27;1.37;;;8.20;74.50;;;;;;5034357;28;20899;-68
2021/04/26 05:25:40;;;;;;;4.17;2.30;;;8.50;73.80;;;;;;5033947;28;20418;-68
2021/04/26 05:28:06;;;;;;;4.30;1.90;;;8.70;73.40;;;;;;5033864;28;20230;-68
2021/04/26 05:30:32;;;;;;;4.90;2.20;;;8.90;72.20;;;;;;5033255;28;20158;-67
2021/04/26 05:32:59;;;;;;;3.85;1.35;;;9.00;71.30;;;;;;5019160;28;20187;-68
2021/04/26 05:35:24;;;;;;;4.93;1.88;;;9.00;72.00;;;;;;5014082;28;20221;-68
2021/04/26 05:37:50;;;;;;;4.23;1.33;;;9.30;71.40;;;;;;5013817;28;20589;-67
2021/04/26 05:40:16;;;;;;;4.13;1.70;;;9.50;69.60;;;;;;5019524;28;20249;-68
2021/04/26 05:42:42;;;;;;;4.90;1.87;;;9.80;68.60;;;;;;5033952;28;20162;-68
2021/04/26 05:45:08;;;;;;;3.83;1.73;;;10.00;66.20;;;;;;5033935;28;20155;-67
2021/04/26 05:47:34;;;;;;;4.55;1.90;;;10.00;65.30;;;;;;5032447;28;20174;-66
2021/04/26 05:50:00;;;;;;;6.30;2.50;;;10.00;66.30;;;;;;5033707;28;20678;-67
2021/04/26 05:52:25;;;;;;;3.63;1.47;;;10.00;66.30;;;;;;5033731;28;20201;-67
2021/04/26 05:54:51;;;;;;;5.97;1.50;;;10.10;65.40;;;;;;5033173;28;20600;-67
2021/04/26 05:57:17;;;;;;;7.23;2.73;;;10.50;65.00;;;;;;5033165;28;20170;-69
2021/04/26 05:59:42;;;;;;;4.70;2.13;;;10.80;63.20;;;;;;5033485;28;20194;-66
2021/04/26 06:02:08;;;;;;;6.30;1.80;;;11.10;62.50;;;;;;5033687;28;20175;-66
2021/04/26 06:04:34;;;;;;;4.60;2.10;;;11.40;60.90;;;;;;5033490;28;20171;-67
2021/04/26 06:07:00;;;;;;;4.77;2.10;;;11.30;60.60;;;;;;5033102;28;20179;-66
2021/04/26 06:09:25;;;;;;;4.27;2.00;;;11.00;61.10;;;;;;5030422;28;20194;-66
2021/04/26 06:11:51;;;;;;;9.43;2.43;;;10.90;61.00;;;;;;5013626;28;20179;-66
2021/04/26 06:14:17;;;;;;;4.60;1.87;;;10.70;62.90;;;;;;5013671;28;20281;-65
2021/04/26 06:16:42;;;;;;;3.53;1.50;;;10.60;63.40;;;;;;5013623;28;20571;-65
2021/04/26 06:19:08;;;;;;;5.00;1.80;;;10.70;64.10;;;;;;5013707;28;20213;-68
2021/04/26 06:21:34;;;;;;;4.70;2.10;;;11.20;62.00;;;;;;5013647;28;20649;-67
2021/04/26 06:24:00;;;;;;;4.43;2.10;;;11.80;61.40;;;;;;5014780;28;20443;-67
2021/04/26 06:26:25;;;;;;;5.23;2.57;;;12.30;59.50;;;;;;5032944;28;20188;-66
2021/04/26 06:28:51;;;;;;;6.20;2.40;;;12.70;58.40;;;;;;5033220;28;20959;-67
2021/04/26 06:31:17;;;;;;;5.47;2.57;;;12.70;56.90;;;;;;5033628;28;20205;-68
2021/04/26 06:33:42;;;;;;;5.10;2.07;;;12.60;57.00;;;;;;5020035;28;20267;-66
2021/04/26 06:36:08;;;;;;;5.23;2.73;;;12.70;56.70;;;;;;5013207;28;20180;-66
2021/04/26 06:38:34;;;;;;;5.07;2.10;;;12.70;56.80;;;;;;5013482;28;20189;-68
2021/04/26 06:40:59;;;;;;;5.07;1.93;;;12.60;56.80;;;;;;5013517;28;20200;-68
2021/04/26 06:43:25;;;;;;;6.10;2.70;;;12.30;57.40;;;;;;5017210;28;20489;-74
2021/04/26 06:45:51;;;;;;;4.60;2.00;;;12.10;57.60;;;;;;5016121;28;20411;-71
2021/04/26 06:48:17;;;;;;;9.00;2.70;;;12.00;57.50;;;;;;5017241;28;20198;-71
2021/04/26 06:50:44;;;;;;;5.40;2.50;;;12.00;57.70;;;;;;5016269;28;20462;-70
2021/04/26 06:53:10;;;;;;;5.28;2.90;;;11.90;58.10;;;;;;5017058;28;20172;-70
2021/04/26 06:55:36;;;;;;;8.33;2.40;;;11.80;58.50;;;;;;5015618;28;20207;-68
2021/04/26 06:58:02;;;;;;;4.00;1.97;;;11.80;58.50;;;;;;5016234;28;20748;-68
2021/04/26 07:00:28;;;;;;;4.30;1.80;;;11.80;58.60;;;;;;5017936;28;20494;-67
2021/04/26 07:02:55;;;;;;;6.03;2.83;;;11.70;58.70;;;;;;5044022;28;20417;-69
2021/04/26 07:05:22;;;;;;;7.15;2.38;;;11.80;58.60;;;;;;5035232;28;20421;-65
2021/04/26 07:07:48;;;;;;;6.53;2.50;;;12.00;58.40;;;;;;5036116;28;20202;-67
2021/04/26 07:10:14;;;;;;;4.97;2.40;;;12.30;58.10;;;;;;5036698;28;20602;-66
2021/04/26 07:12:41;;;;;;;4.60;2.70;;;12.40;57.70;;;;;;5036518;28;20413;-68
2021/04/26 07:15:09;;;;;;;4.80;2.47;;;12.70;57.70;;;;;;5036227;28;20454;-64
2021/04/26 07:17:35;;;;;;;5.10;2.23;;;13.00;57.20;;;;;;5036144;28;20454;-66
2021/04/26 07:20:04;;;;;;;7.20;2.33;;;13.30;57.10;;;;;;5036251;28;20470;-69
2021/04/26 07:22:30;;;;;;;8.03;2.20;;;13.30;56.70;;;;;;5051546;28;20687;-66
2021/04/26 07:24:56;;;;;;;3.97;1.87;;;13.70;56.20;;;;;;5036408;28;20491;-69
2021/04/26 07:27:21;;;;;;;8.00;2.83;;;14.20;55.50;;;;;;5035734;28;20412;-69
2021/04/26 07:29:47;;;;;;;5.30;2.60;;;14.90;54.90;;;;;;5035705;28;20222;-71
2021/04/26 07:32:13;;;;;;;4.47;1.87;;;15.40;53.60;;;;;;5016124;28;20270;-71
2021/04/26 07:34:38;;;;;;;5.10;2.37;;;16.00;54.40;;;;;;5015943;28;20206;-69
2021/04/26 07:37:04;;;;;;;5.70;3.40;;;17.20;52.60;;;;;;5015941;28;20252;-69
2021/04/26 07:39:31;;;;;;;5.90;3.33;;;17.90;50.20;;;;;;5016088;28;20191;-68
2021/04/26 07:41:58;;;;;;;7.77;2.77;;;18.30;50.00;;;;;;5016111;28;20214;-67
2021/04/26 07:44:24;;;;;;;5.93;2.97;;;19.40;48.80;;;;;;5016036;28;20764;-66
2021/04/26 07:46:49;;;;;;;4.80;2.90;;;20.10;47.20;;;;;;5015654;28;20487;-71
2021/04/26 07:49:15;;;;;;;4.57;2.57;;;20.40;46.00;;;;;;5033105;28;20664;-68
2021/04/26 07:51:41;;;;;;;4.20;2.33;;;20.60;46.90;;;;;;5035755;28;20648;-63
2021/04/26 07:54:07;;;;;;;3.83;2.30;;;21.20;44.90;;;;;;5034439;28;20204;-65
2021/04/26 07:56:32;;;;;;;5.00;2.73;;;21.70;44.50;;;;;;5035212;28;20591;-66
2021/04/26 07:58:58;;;;;;;4.43;2.67;;;22.20;43.80;;;;;;5035587;28;20503;-70
2021/04/26 08:01:24;;;;;;;5.17;3.20;;;22.40;43.30;;;;;;5018278;28;20175;-69
2021/04/26 08:03:50;;;;;;;3.43;2.10;;;22.80;42.10;;;;;;5015745;28;20586;-68
2021/04/26 08:06:16;;;;;;;3.87;2.23;;;23.10;41.30;;;;;;5015400;28;20182;-65
2021/04/26 08:08:42;;;;;;;4.40;2.63;;;23.30;41.80;;;;;;5023134;28;20484;-66
2021/04/26 08:11:08;;;;;;;4.87;3.17;;;24.10;40.50;;;;;;5035385;28;20205;-68
2021/04/26 08:13:34;;;;;;;4.73;3.20;;;24.40;40.10;;;;;;5050949;28;20384;-67
2021/04/26 08:15:59;;;;;;;4.80;3.30;;;24.50;39.40;;;;;;5034876;28;20449;-68
2021/04/26 08:18:25;;;;;;;7.10;3.17;;;24.90;39.40;;;;;;5035024;28;20232;-69
2021/04/26 08:20:51;;;;;;;4.30;2.53;;;24.50;38.40;;;;;;5024638;28;20290;-69
2021/04/26 08:23:17;;;;;;;5.03;3.17;;;24.60;39.60;;;;;;5021858;28;20498;-68
2021/04/26 08:25:43;;;;;;;4.40;2.57;;;24.80;38.60;;;;;;5034865;28;20379;-68
2021/04/26 08:28:10;;;;;;;4.37;2.57;;;24.70;38.60;;;;;;5034980;28;20237;-70
2021/04/26 08:30:35;;;;;;;5.50;2.33;;;24.60;38.60;;;;;;5035150;28;20378;-69
2021/04/26 08:33:01;;;;;;;4.60;3.17;;;24.70;38.70;;;;;;5017160;28;20500;-68
2021/04/26 08:35:27;;;;;;;3.97;2.37;;;25.40;38.20;;;;;;5015237;28;20198;-69
2021/04/26 08:37:52;;;;;;;5.17;3.40;;;25.80;37.60;;;;;;5014647;28;20539;-68
2021/04/26 08:40:18;;;;;;;4.80;3.17;;;25.00;37.70;;;;;;5015410;28;20491;-69
2021/04/26 08:42:44;;;;;;;4.53;2.80;;;24.60;38.50;;;;;;5015110;28;20618;-69
2021/04/26 08:45:10;;;;;;;4.83;3.17;;;24.50;38.90;;;;;;5015150;28;20207;-69
2021/04/26 08:47:41;;;;;;;4.03;2.77;;;24.60;38.70;;;;;;5014612;28;20179;-67
2021/04/26 08:50:09;;;;;;;4.80;2.77;;;25.10;38.60;;;;;;5014808;28;20468;-69
2021/04/26 08:52:35;;;;;;;5.23;2.53;;;25.50;38.00;;;;;;5014968;28;20381;-68
2021/04/26 08:55:02;;;;;;;4.20;3.00;;;25.60;37.90;;;;;;5014755;28;20429;-67
2021/04/26 08:57:28;;;;;;;3.73;2.20;;;25.80;37.30;;;;;;5013186;28;20890;-64
2021/04/26 08:59:54;;;;;;;5.13;3.30;;;25.30;37.70;;;;;;5014497;28;20397;-68
2021/04/26 09:02:19;;;;;;;4.30;2.83;;;25.30;38.60;;;;;;5030358;28;20398;-64
2021/04/26 09:04:49;;;;;;;5.33;3.30;;;25.70;37.80;;;;;;5034293;28;20181;-63
2021/04/26 09:07:16;;;;;;;4.10;2.53;;;26.20;37.40;;;;;;5033842;28;20178;-63
2021/04/26 09:09:51;;;;;;;5.00;3.13;;;26.10;37.50;;;;;;5034113;28;20740;-64
2021/04/26 09:12:22;;;;;;;4.50;3.07;;;26.40;36.90;;;;;;5026855;28;20404;-65
2021/04/26 09:14:49;;;;;;;4.10;3.20;;;26.50;36.40;;;;;;5034310;28;20448;-63
2021/04/26 09:17:26;;;;;;;3.70;2.47;;;26.40;36.90;;;;;;5016163;28;20479;-64
2021/04/26 09:19:53;;;;;;;4.23;2.77;;;26.50;36.70;;;;;;5014772;28;20881;-64
2021/04/26 09:22:58;;;;;;;6.20;3.30;;;27.00;37.10;;;;;;5024025;28;20392;-64
2021/04/26 09:25:41;;;;;;;3.90;2.50;;;26.80;36.10;;;;;;5015567;28;20409;-64
2021/04/26 09:28:09;;;;;;;8.13;3.20;;;26.60;36.00;;;;;;5023194;28;20460;-64
2021/04/26 09:30:34;;;;;;;5.83;3.27;;;26.60;35.90;;;;;;5012236;28;20894;-63
2021/04/26 09:33:21;;;;;;;5.80;3.40;;;26.10;36.50;;;;;;5012079;28;20479;-64
2021/04/26 09:36:01;;;;;;;4.57;3.40;;;26.40;37.10;;;;;;4995212;28;20330;-65
2021/04/26 09:38:29;;;;;;;6.10;3.27;;;26.70;36.70;;;;;;5012046;28;20431;-64
2021/04/26 09:41:09;;;;;;;4.57;2.83;;;27.40;35.60;;;;;;5011838;28;20388;-66
2021/04/26 09:43:35;;;;;;;4.80;3.00;;;27.30;35.00;;;;;;5025568;28;20395;-63
2021/04/26 09:46:01;;;;;;;4.20;2.50;;;27.10;34.80;;;;;;5031287;28;20395;-65
2021/04/26 09:48:27;;;;;;;4.03;2.63;;;26.80;35.00;;;;;;5031684;28;20917;-64
2021/04/26 09:51:01;;;;;;;5.80;3.40;;;26.50;35.50;;;;;;5030933;28;20194;-64
2021/04/26 09:53:29;;;;;;;4.47;2.80;;;26.60;35.80;;;;;;5031246;28;20387;-63
2021/04/26 09:55:56;;;;;;;4.17;2.73;;;26.90;36.50;;;;;;5031721;28;20442;-64
2021/04/26 09:58:23;;;;;;;4.77;3.33;;;26.70;38.00;;;;;;5033508;28;20751;-63
2021/04/26 10:00:49;;;;;;;3.83;2.47;;;26.40;36.50;;;;;;5033492;28;20380;-64
2021/04/26 10:03:16;;;;;;;5.00;3.23;;;26.30;37.00;;;;;;5033468;28;20906;-64
2021/04/26 10:05:43;;;;;;;5.33;3.67;;;26.00;35.40;;;;;;5027282;28;20424;-64
2021/04/26 10:08:11;;;;;;;4.97;2.87;;;25.90;36.10;;;;;;5031177;28;20444;-64
2021/04/26 10:10:44;;;;;;;4.40;2.77;;;26.20;35.40;;;;;;5033187;28;20392;-66
2021/04/26 10:13:10;;;;;;;4.20;2.87;;;26.20;35.20;;;;;;5033473;28;20395;-66
2021/04/26 10:15:37;;;;;;;4.23;2.70;;;25.80;36.10;;;;;;5033214;28;20449;-66
2021/04/26 10:18:06;;;;;;;5.53;2.37;;;25.60;35.80;;;;;;5032625;28;20866;-65
2021/04/26 10:20:43;;;;;;;4.80;2.70;;;25.80;35.50;;;;;;5031683;28;20454;-67
2021/04/26 10:23:39;;;;;;;4.23;2.53;;;25.90;35.70;;;;;;5033325;28;20407;-65
2021/04/26 10:26:06;;;;;;;5.27;2.90;;;25.90;35.80;;;;;;5031701;28;20878;-67
2021/04/26 10:28:41;;;;;;;5.13;3.00;;;25.70;37.60;;;;;;5033340;28;20508;-72
2021/04/26 10:31:15;;;;;;;5.13;3.40;;;25.20;37.90;;;;;;5048563;28;20805;-66
2021/04/26 10:33:56;;;;;;;5.33;3.20;;;24.80;37.50;;;;;;5020329;28;20399;-69
2021/04/26 10:36:40;;;;;;;5.23;2.90;;;24.30;38.00;;;;;;5013156;28;20388;-73
2021/04/26 10:39:14;;;;;;;5.40;3.23;;;24.00;38.70;;;;;;5029332;28;20477;-71
2021/04/26 10:42:07;;;;;;;5.17;2.87;;;23.90;39.00;;;;;;5033184;28;20363;-68
2021/04/26 10:44:41;;;;;;;5.90;2.70;;;23.60;38.70;;;;;;5032995;28;20407;-67
2021/04/26 10:47:20;;;;;;;6.80;2.90;;;23.20;39.00;;;;;;5032577;28;20492;-67
2021/04/26 10:50:06;;;;;;;4.67;2.73;;;23.10;38.90;;;;;;5032692;28;20447;-66
2021/04/26 10:52:36;;;;;;;4.87;3.13;;;22.70;40.00;;;;;;5028240;28;20440;-67
2021/04/26 10:55:12;;;;;;;5.60;3.53;;;22.70;39.50;;;;;;5020414;28;20897;-68
2021/04/26 10:57:47;;;;;;;4.80;2.83;;;22.90;39.40;;;;;;5029947;28;20450;-65
2021/04/26 11:00:22;;;;;;;4.10;2.43;;;23.10;39.80;;;;;;5046841;28;20962;-68
2021/04/26 11:02:51;;;;;;;4.53;3.00;;;23.00;40.70;;;;;;5051901;28;20412;-69
2021/04/26 11:05:20;;;;;;;4.77;3.27;;;23.00;39.60;;;;;;5052420;28;20824;-69
2021/04/26 11:07:51;;;;;;;4.20;2.27;;;22.50;39.90;;;;;;5027982;28;20883;-67
2021/04/26 11:10:29;;;;;;;5.73;3.40;;;21.90;39.30;;;;;;5016948;28;20417;-66
2021/04/26 11:13:00;;;;;;;5.73;2.83;;;20.70;41.00;;;;;;5028524;28;20428;-66
2021/04/26 11:15:26;;;;;;;4.00;2.20;;;20.10;41.30;;;;;;5032223;28;20471;-67
2021/04/26 11:17:53;;;;;;;4.70;2.83;;;19.50;42.10;;;;;;5031258;28;20435;-68
2021/04/26 11:20:23;;;;;;;7.60;3.23;;;19.10;43.50;;;;;;5014638;28;20417;-67
2021/04/26 11:22:49;;;;;;;4.70;2.90;;;18.60;43.30;;;;;;5030492;28;20502;-67
2021/04/26 11:25:32;;;;;;;5.80;2.87;;;18.20;44.50;;;;;;5026488;28;20414;-65
2021/04/26 11:27:58;;;;;;;6.00;3.03;;;17.90;45.40;;;;;;5012449;28;20518;-66
2021/04/26 11:30:35;;;;;;;7.77;2.60;;;17.70;45.30;;;;;;5023131;28;20420;-67
2021/04/26 11:33:00;;;;;;;8.20;2.43;;;17.60;45.30;;;;;;5035313;28;20818;-71
2021/04/26 11:35:26;;;;;;;7.50;2.70;;;17.40;43.90;;;;;;5021328;28;20464;-65
2021/04/26 11:37:53;;;;;;;5.43;2.33;;;17.30;43.60;;;;;;5035703;28;20518;-66
2021/04/26 11:40:22;;;;;;;6.83;2.47;;;17.00;44.40;;;;;;5036093;28;20566;-67
2021/04/26 11:42:48;;;;;;;4.33;2.10;;;16.90;44.30;;;;;;5029888;28;20421;-68
2021/04/26 11:45:14;;;;;;;9.30;3.03;;;16.70;45.90;;;;;;5019189;28;20420;-68
2021/04/26 11:47:40;;;;;;;6.13;2.70;;;16.80;46.00;;;;;;5028601;28;20430;-68
2021/04/26 11:50:10;;;;;;;6.37;2.77;;;16.70;44.60;;;;;;5025195;28;20420;-68
2021/04/26 11:52:37;;;;;;;5.70;2.47;;;16.70;45.30;;;;;;5032423;28;20170;-67
2021/04/26 11:55:02;;;;;;;3.87;1.80;;;16.70;45.20;;;;;;5034947;28;20551;-70
2021/04/26 11:57:28;;;;;;;4.27;2.47;;;16.70;43.70;;;;;;5035017;28;20837;-69
2021/04/26 11:59:59;;;;;;;3.77;2.30;;;16.80;43.60;;;;;;5030195;28;20195;-69
2021/04/26 12:02:32;;;;;;;3.80;2.07;;;16.60;44.30;;;;;;5045186;28;20954;-68
2021/04/26 12:05:00;;;;;;;5.20;2.50;;;16.60;44.60;;;;;;5052489;28;20526;-69
2021/04/26 12:07:27;;;;;;;3.50;2.10;;;16.60;44.70;;;;;;5064473;28;20515;-68
2021/04/26 12:09:57;;;;;;;4.30;2.40;;;16.50;45.10;;;;;;5034420;28;20493;-67
2021/04/26 12:12:28;;;;;;;4.70;2.37;;;16.40;45.00;;;;;;5035556;28;20435;-69
2021/04/26 12:15:00;;;;;;;4.57;2.83;;;16.40;44.50;;;;;;5035341;28;20454;-66
2021/04/26 12:17:28;;;;;;;10.10;2.57;;;16.40;44.60;;;;;;5032434;28;20428;-66
2021/04/26 12:19:55;;;;;;;3.50;1.70;;;16.30;45.30;;;;;;5032370;28;20787;-66
2021/04/26 12:22:22;;;;;;;5.37;2.83;;;16.30;45.50;;;;;;5017247;28;20504;-66
2021/04/26 12:24:55;;;;;;;4.57;2.50;;;16.40;45.80;;;;;;5050199;28;20774;-69
2021/04/26 12:27:26;;;;;;;5.43;2.30;;;16.30;46.50;;;;;;5054543;28;20485;-67
2021/04/26 12:29:52;;;;;;;4.37;2.10;;;16.30;45.30;;;;;;5054407;28;20518;-68
2021/04/26 12:32:24;;;;;;;4.07;2.50;;;16.40;45.20;;;;;;5055057;28;20412;-68
2021/04/26 12:35:01;;;;;;;3.37;2.10;;;16.40;45.20;;;;;;5054498;28;20451;-68
2021/04/26 12:37:30;;;;;;;5.70;1.93;;;16.50;43.70;;;;;;5042788;28;20432;-67
2021/04/26 12:40:21;;;;;;;6.70;2.60;;;16.50;43.60;;;;;;5021171;28;20425;-70
2021/04/26 12:42:50;;;;;;;5.67;2.13;;;16.60;43.20;;;;;;5024582;28;20481;-68
2021/04/26 12:45:22;;;;;;;4.17;1.87;;;16.60;43.30;;;;;;5031406;28;20425;-73
2021/04/26 12:47:50;;;;;;;3.23;1.80;;;16.70;44.10;;;;;;5030653;28;20432;-72
2021/04/26 12:50:52;;;;;;;3.40;1.70;;;16.70;43.10;;;;;;5048109;28;20444;-73
2021/04/26 12:53:20;;;;;;;5.03;1.90;;;16.80;43.60;;;;;;5024218;28;20448;-69
2021/04/26 12:56:03;;;;;;;5.40;2.23;;;16.90;42.80;;;;;;5014407;28;20507;-75